x

East Bahamas - 335 Nm East Of San Salvador Is, Bahamas (41046) Wave Buoy

1:50pm - Wed 26th Nov 2014 All times are UTC.

  • Sig Wave height 7.9ft
  • Swell Direction
  • Peak Period 9s
  • Average Period 7s
  • Wind
    18mph, 20mph gusts
  • Sea Temp 81°f
  • Air Temp 81°f
  • Sea Pressure 1020.2mb

More Historic Weather Station data

Upgrade to MSW Pro to gain access to the past 30 days of data for over 8000 Wavebouys and Weather Stations around the globe.

Join Pro

Comparision Forecast

View Surf forecast
   
Wed 11/26 1:50pm 8ft 9s 7s 18 20 mph 1020.2mb 81f 81f
12:50pm 7.5ft 9s 6s 18 22 mph 1019.6mb 81f 81f
11:50am 7.5ft 9s 6s 20 22 mph 1018.8mb 81f 81f
10:50am 8.5ft 9s 7s 18 22 mph 1018.5mb 81f 81f
9:50am 8.5ft 9s 7s 20 25 mph 1018mb 81f 81f
8:50am 8.5ft 9s 7s 18 22 mph 1017.9mb 81f 81f
7:50am 8ft 9s 7s 18 22 mph 1017.8mb 81f 81f
6:50am 8.5ft 9s 7s 20 25 mph 1018mb 81f 81f
5:50am 9.5ft 8s 7s 18 22 mph 1018.4mb 81f 81f
4:50am 8.5ft 9s 6s 20 25 mph 1018.7mb 81f 81f
3:50am 9ft 9s 7s 22 27 mph 1019mb 81f 81f
2:50am 9ft 9s 6s 22 27 mph 1019.3mb 81f 81f
1:50am 9ft 9s 7s 22 27 mph 1019.4mb 81f 81f
12:50am 8.5ft 9s 6s 22 27 mph 1019.3mb 81f 80f
Tue 11/25 11:50pm 8.5ft 8s 6s 25 29 mph 1019.1mb 81f 81f
10:50pm 9ft 9s 6s 25 29 mph 1018.8mb 81f 81f
9:50pm 9ft 8s 6s 22 27 mph 1018.8mb 81f 81f
8:50pm 8.5ft 7s 6s 25 29 mph 1018.8mb 81f 81f
7:50pm 8ft 8s 6s 25 29 mph 1018.5mb 81f 81f
6:50pm 8ft 8s 6s 25 29 mph 1018.8mb 81f 81f
5:50pm 8.5ft 7s 6s 22 27 mph 1019.3mb 81f 82f
4:50pm 8ft 9s 6s 22 27 mph 1020mb 81f 82f
3:50pm 7.5ft 9s 6s 20 25 mph 1021.1mb 81f 82f
2:50pm 8ft 9s 6s 18 22 mph 1021.6mb 81f 82f
1:50pm 7.5ft 8s 6s 20 25 mph 1021.5mb 81f 82f
12:50pm 8.5ft 9s 7s 18 22 mph 1021.2mb 81f 82f
11:50am 8ft 8s 6s 20 22 mph 1020.7mb 81f 81f
10:50am 8ft 8s 7s 20 22 mph 1020.3mb 81f 81f
9:50am 8ft 9s 6s 16 20 mph 1019.9mb 81f 80f
8:50am 8.5ft 9s 7s 18 20 mph 1019.6mb 81f 81f
7:50am 9ft 8s 7s 20 22 mph 1019.5mb 81f 81f
6:50am 8ft 9s 7s 20 25 mph 1019.7mb 81f 81f
5:50am 8.5ft 10s 7s 18 22 mph 1020.2mb 81f 81f
4:50am 8.5ft 9s 6s 20 25 mph 1020.3mb 81f 81f
3:50am 9ft 8s 7s 22 25 mph 1020.6mb 81f 81f
2:50am 8ft 9s 7s 20 25 mph 1021mb 81f 81f
1:50am 8ft 8s 6s 20 25 mph 1021mb 81f 81f
12:50am 8ft 9s 6s 20 25 mph 1020.6mb 81f 82f
Mon 11/24 11:50pm 7.5ft 9s 6s 20 25 mph 1020.3mb 82f 82f
10:50pm 7.5ft 10s 6s 18 22 mph 1020mb 82f 81f
9:50pm 9ft 8s 7s 18 22 mph 1019.6mb 82f 82f
8:50pm 8ft 7s 6s 18 22 mph 1019mb 82f 82f
7:50pm 8ft 8s 6s 18 20 mph 1018.7mb 82f 82f
6:50pm 8.5ft 9s 7s 18 20 mph 1018.6mb 82f 82f
5:50pm 8ft 7s 6s 20 25 mph 1018.9mb 82f 82f
4:50pm 8ft 9s 6s 20 25 mph 1019.5mb 82f 82f
3:50pm 8.5ft 8s 6s 22 25 mph 1020mb 82f 82f
2:50pm 8.5ft 8s 6s 20 25 mph 1020.4mb 82f 82f
1:50pm 8.5ft 8s 6s 22 25 mph 1020.5mb 82f 82f
12:50pm 8.5ft 8s 7s 20 25 mph 1020.2mb 82f 82f
11:50am 8ft 9s 6s 20 27 mph 1019.6mb 82f 82f
10:50am 9ft 8s 7s 20 25 mph 1019mb 82f 81f
9:50am 8.5ft 7s 7s 20 25 mph 1018.4mb 82f 81f
8:50am 9ft 9s 7s 20 25 mph 1018mb 82f 81f
7:50am 9ft 8s 7s 20 25 mph 1018mb 82f 82f
6:50am 9ft 8s 7s 16 18 mph 1018.5mb 82f 78f
5:50am 9ft 8s 7s 18 25 mph 1018.8mb 82f 80f
4:50am 9ft 9s 7s 22 27 mph 1018.9mb 82f 80f
3:50am 9.5ft 9s 7s 20 22 mph 1019.4mb 82f 80f
2:50am 9.5ft 10s 7s 22 27 mph 1019.3mb 82f 80f
1:50am 9.5ft 9s 7s 16 18 mph 1019.5mb 82f 79f
12:50am 9.5ft 9s 7s 18 22 mph 1019.1mb 82f 80f
Sun 11/23 11:50pm 9.5ft 10s 7s 22 27 mph 1018.5mb 82f 80f
10:50pm 9ft 8s 6s 18 22 mph 1018.1mb 82f 78f
9:50pm 9.5ft 8s 7s 22 27 mph 1017.9mb 82f 80f
8:50pm 9ft 8s 7s 20 25 mph 1017.9mb 82f 79f
7:50pm 9ft 8s 7s 22 29 mph 1017.6mb 82f 79f
6:50pm 11ft 9s 7s 20 25 mph 1017.7mb 82f 81f
5:50pm 9ft 8s 7s 20 25 mph 1018.2mb 82f 82f
4:50pm 9.5ft 8s 6s 20 25 mph 1019mb 82f 82f
3:50pm 10ft 8s  -  20 25 mph 1019.8mb 82f 81f
2:50pm 9.5ft 8s 7s 22 27 mph 1020.2mb 82f 82f
1:50pm 10.5ft 9s 7s 20 25 mph 1020.3mb 82f 81f
12:50pm 9.5ft 10s 7s 20 27 mph 1019.5mb 82f 81f
11:50am 10ft 9s 7s 20 27 mph 1019mb 82f 81f
10:50am 11ft 8s 7s 18 22 mph 1019mb 82f 80f
9:50am 11ft 9s 7s 22 25 mph 1018.3mb 82f 80f
8:50am 10ft 9s 7s 22 27 mph 1017.8mb 82f 80f
7:50am 10ft 8s 7s 22 29 mph 1018.1mb 82f 79f
6:50am 11.5ft 9s 7s 20 25 mph 1018.6mb 82f 78f
5:50am 10ft 9s 7s 25 31 mph 1018.5mb 82f 80f
4:50am 11ft 8s 7s 20 25 mph 1019.6mb 81f 79f
3:50am 10ft 9s 7s 25 31 mph 1019.4mb 81f 79f
2:50am 10ft 8s 7s 20 27 mph 1020mb 81f 80f
1:50am 9.5ft 8s 7s 20 25 mph 1019.8mb 81f 80f
12:50am 9ft 8s 6s 22 27 mph 1019.4mb 82f 81f
Sat 11/22 11:50pm 9ft 8s 6s 25 29 mph 1018.7mb 82f 80f
10:50pm 8.5ft 8s 6s 22 27 mph 1018.6mb 82f 80f
9:50pm 9ft 8s 6s 22 27 mph 1018.3mb 82f 80f
8:50pm 8.5ft 9s 6s 22 27 mph 1018mb 82f 79f
7:50pm 8.5ft 8s 6s 22 25 mph 1017.9mb 82f 81f
6:50pm 9ft 8s 6s 22 27 mph 1018.1mb 82f 81f
5:50pm 8.5ft 7s 6s 25 29 mph 1018.4mb 82f 81f
4:50pm 8.5ft 9s 6s 25 29 mph 1018.9mb 82f 81f
3:50pm 8ft 6s 6s 25 31 mph 1019.8mb 82f 81f